sensor_id;sensor_type;location;lat;lon;timestamp;pressure;altitude;pressure_sealevel;temperature;humidity
67013;BME280;53926;47.406;19.188;2022-11-20T00:00:16;100065.19;;;0.39;100.00
67013;BME280;53926;47.406;19.188;2022-11-20T00:02:43;100042.91;;;0.40;100.00
67013;BME280;53926;47.406;19.188;2022-11-20T00:05:10;100029.47;;;0.38;100.00
67013;BME280;53926;47.406;19.188;2022-11-20T00:07:36;100030.13;;;0.40;100.00
67013;BME280;53926;47.406;19.188;2022-11-20T00:10:03;100035.03;;;0.51;100.00
67013;BME280;53926;47.406;19.188;2022-11-20T00:12:30;100037.00;;;0.39;100.00
67013;BME280;53926;47.406;19.188;2022-11-20T00:14:56;100056.69;;;0.39;100.00
67013;BME280;53926;47.406;19.188;2022-11-20T00:17:23;100065.78;;;0.51;100.00
67013;BME280;53926;47.406;19.188;2022-11-20T00:19:49;100065.53;;;0.44;100.00
67013;BME280;53926;47.406;19.188;2022-11-20T00:22:16;100065.53;;;0.44;100.00
67013;BME280;53926;47.406;19.188;2022-11-20T00:24:43;100072.56;;;0.42;100.00
67013;BME280;53926;47.406;19.188;2022-11-20T00:27:09;100088.09;;;0.41;100.00
67013;BME280;53926;47.406;19.188;2022-11-20T00:29:36;100088.97;;;0.49;100.00
67013;BME280;53926;47.406;19.188;2022-11-20T00:32:05;100081.50;;;0.38;100.00
67013;BME280;53926;47.406;19.188;2022-11-20T00:34:32;100059.75;;;0.42;100.00
67013;BME280;53926;47.406;19.188;2022-11-20T00:36:58;100070.00;;;0.42;100.00
67013;BME280;53926;47.406;19.188;2022-11-20T00:39:25;100089.84;;;0.40;100.00
67013;BME280;53926;47.406;19.188;2022-11-20T00:41:52;100083.75;;;0.41;100.00
67013;BME280;53926;47.406;19.188;2022-11-20T00:44:18;100082.97;;;0.41;100.00
67013;BME280;53926;47.406;19.188;2022-11-20T00:46:45;100071.47;;;0.45;100.00
67013;BME280;53926;47.406;19.188;2022-11-20T00:49:11;100060.84;;;0.58;100.00
67013;BME280;53926;47.406;19.188;2022-11-20T00:51:38;100074.69;;;0.47;100.00
67013;BME280;53926;47.406;19.188;2022-11-20T00:54:04;100059.25;;;0.39;100.00
67013;BME280;53926;47.406;19.188;2022-11-20T00:56:31;100052.56;;;0.46;100.00
67013;BME280;53926;47.406;19.188;2022-11-20T00:59:00;100051.00;;;0.45;100.00
67013;BME280;53926;47.406;19.188;2022-11-20T01:01:27;100045.19;;;0.43;100.00
67013;BME280;53926;47.406;19.188;2022-11-20T01:03:57;100063.41;;;0.40;100.00
67013;BME280;53926;47.406;19.188;2022-11-20T01:06:36;100054.00;;;0.40;100.00
67013;BME280;53926;47.406;19.188;2022-11-20T01:09:06;100045.34;;;0.41;100.00
67013;BME280;53926;47.406;19.188;2022-11-20T01:11:36;100041.09;;;0.32;100.00
67013;BME280;53926;47.406;19.188;2022-11-20T01:14:07;100053.03;;;0.23;100.00
67013;BME280;53926;47.406;19.188;2022-11-20T01:16:36;100055.03;;;0.29;100.00
67013;BME280;53926;47.406;19.188;2022-11-20T01:19:06;100042.12;;;0.21;100.00
67013;BME280;53926;47.406;19.188;2022-11-20T01:21:36;100046.94;;;0.24;100.00
67013;BME280;53926;47.406;19.188;2022-11-20T01:24:04;100050.63;;;0.22;100.00
67013;BME280;53926;47.406;19.188;2022-11-20T01:26:34;100047.09;;;0.23;100.00
67013;BME280;53926;47.406;19.188;2022-11-20T01:29:02;100045.50;;;0.22;100.00
67013;BME280;53926;47.406;19.188;2022-11-20T01:31:36;100049.81;;;0.21;100.00
67013;BME280;53926;47.406;19.188;2022-11-20T01:34:07;100059.31;;;0.29;100.00
67013;BME280;53926;47.406;19.188;2022-11-20T01:36:36;100061.59;;;0.32;100.00
67013;BME280;53926;47.406;19.188;2022-11-20T01:39:06;100059.75;;;0.24;100.00
67013;BME280;53926;47.406;19.188;2022-11-20T01:41:33;100053.34;;;0.20;100.00
67013;BME280;53926;47.406;19.188;2022-11-20T01:44:21;100064.66;;;0.17;100.00
67013;BME280;53926;47.406;19.188;2022-11-20T01:47:04;100050.34;;;0.25;100.00
67013;BME280;53926;47.406;19.188;2022-11-20T01:52:04;100063.44;;;0.22;100.00
67013;BME280;53926;47.406;19.188;2022-11-20T01:54:36;100039.34;;;0.14;100.00
67013;BME280;53926;47.406;19.188;2022-11-20T01:57:07;100028.66;;;0.19;100.00
67013;BME280;53926;47.406;19.188;2022-11-20T01:59:37;100020.09;;;0.10;100.00
67013;BME280;53926;47.406;19.188;2022-11-20T02:02:07;100043.66;;;0.14;100.00
67013;BME280;53926;47.406;19.188;2022-11-20T02:04:34;100042.06;;;0.13;100.00
67013;BME280;53926;47.406;19.188;2022-11-20T02:07:02;100041.25;;;0.12;100.00
67013;BME280;53926;47.406;19.188;2022-11-20T02:09:29;100044.25;;;0.26;100.00
67013;BME280;53926;47.406;19.188;2022-11-20T02:11:56;100047.37;;;0.20;100.00
67013;BME280;53926;47.406;19.188;2022-11-20T02:14:24;100057.03;;;0.26;100.00
67013;BME280;53926;47.406;19.188;2022-11-20T02:16:51;100049.75;;;0.13;100.00
67013;BME280;53926;47.406;19.188;2022-11-20T02:19:28;100057.78;;;0.18;100.00
67013;BME280;53926;47.406;19.188;2022-11-20T02:24:31;100054.13;;;0.21;100.00
67013;BME280;53926;47.406;19.188;2022-11-20T02:27:12;100057.03;;;0.26;100.00
67013;BME280;53926;47.406;19.188;2022-11-20T02:29:40;100044.25;;;0.26;100.00
67013;BME280;53926;47.406;19.188;2022-11-20T02:32:24;100051.72;;;0.19;100.00
67013;BME280;53926;47.406;19.188;2022-11-20T02:34:51;100045.22;;;0.25;100.00
67013;BME280;53926;47.406;19.188;2022-11-20T02:37:19;100046.59;;;0.19;100.00
67013;BME280;53926;47.406;19.188;2022-11-20T02:39:48;100036.72;;;0.24;100.00
67013;BME280;53926;47.406;19.188;2022-11-20T02:42:17;100032.16;;;0.18;100.00
67013;BME280;53926;47.406;19.188;2022-11-20T02:44:43;100036.84;;;0.23;100.00
67013;BME280;53926;47.406;19.188;2022-11-20T02:47:12;100027.28;;;0.25;100.00
67013;BME280;53926;47.406;19.188;2022-11-20T02:49:39;100032.03;;;0.20;100.00
67013;BME280;53926;47.406;19.188;2022-11-20T02:52:05;100019.31;;;0.28;100.00
67013;BME280;53926;47.406;19.188;2022-11-20T02:54:32;100021.03;;;0.27;100.00
67013;BME280;53926;47.406;19.188;2022-11-20T02:56:58;100021.72;;;0.29;100.00
67013;BME280;53926;47.406;19.188;2022-11-20T02:59:25;100016.50;;;0.39;100.00
67013;BME280;53926;47.406;19.188;2022-11-20T03:01:52;100010.59;;;0.39;100.00
67013;BME280;53926;47.406;19.188;2022-11-20T03:04:18;100005.78;;;0.35;100.00
67013;BME280;53926;47.406;19.188;2022-11-20T03:06:45;99998.59;;;0.39;100.00
67013;BME280;53926;47.406;19.188;2022-11-20T03:09:12;99990.16;;;0.29;100.00
67013;BME280;53926;47.406;19.188;2022-11-20T03:11:38;99992.50;;;0.40;100.00
67013;BME280;53926;47.406;19.188;2022-11-20T03:14:05;99994.06;;;0.33;100.00
67013;BME280;53926;47.406;19.188;2022-11-20T03:16:34;99992.28;;;0.33;100.00
67013;BME280;53926;47.406;19.188;2022-11-20T03:19:00;100001.94;;;0.40;100.00
67013;BME280;53926;47.406;19.188;2022-11-20T03:21:27;99998.88;;;0.36;100.00
67013;BME280;53926;47.406;19.188;2022-11-20T03:23:54;100015.03;;;0.37;100.00
67013;BME280;53926;47.406;19.188;2022-11-20T03:26:23;100024.50;;;0.36;100.00
67013;BME280;53926;47.406;19.188;2022-11-20T03:28:55;100026.69;;;0.31;100.00
67013;BME280;53926;47.406;19.188;2022-11-20T03:31:27;100025.72;;;0.32;100.00
67013;BME280;53926;47.406;19.188;2022-11-20T03:33:56;100026.69;;;0.31;100.00
67013;BME280;53926;47.406;19.188;2022-11-20T03:36:26;100033.78;;;0.37;100.00
67013;BME280;53926;47.406;19.188;2022-11-20T03:38:54;100027.06;;;0.36;100.00
67013;BME280;53926;47.406;19.188;2022-11-20T03:41:26;100032.69;;;0.40;100.00
67013;BME280;53926;47.406;19.188;2022-11-20T03:43:55;100014.31;;;0.44;100.00
67013;BME280;53926;47.406;19.188;2022-11-20T03:46:22;100002.31;;;0.45;100.00
67013;BME280;53926;47.406;19.188;2022-11-20T03:48:48;99997.53;;;0.50;100.00
67013;BME280;53926;47.406;19.188;2022-11-20T03:51:25;99986.94;;;0.45;100.00
67013;BME280;53926;47.406;19.188;2022-11-20T03:53:54;99993.22;;;0.50;100.00
67013;BME280;53926;47.406;19.188;2022-11-20T03:56:32;99992.28;;;0.51;100.00
67013;BME280;53926;47.406;19.188;2022-11-20T03:59:00;99978.66;;;0.51;100.00
67013;BME280;53926;47.406;19.188;2022-11-20T04:01:29;99982.16;;;0.50;100.00
67013;BME280;53926;47.406;19.188;2022-11-20T04:03:56;99973.44;;;0.61;100.00
67013;BME280;53926;47.406;19.188;2022-11-20T04:06:28;99971.63;;;0.53;100.00
67013;BME280;53926;47.406;19.188;2022-11-20T04:08:56;99986.81;;;0.73;100.00
67013;BME280;53926;47.406;19.188;2022-11-20T04:11:26;99977.16;;;0.66;100.00
67013;BME280;53926;47.406;19.188;2022-11-20T04:13:58;99973.44;;;0.61;100.00
67013;BME280;53926;47.406;19.188;2022-11-20T04:16:26;99974.59;;;0.66;100.00
67013;BME280;53926;47.406;19.188;2022-11-20T04:18:54;99965.75;;;0.61;100.00
67013;BME280;53926;47.406;19.188;2022-11-20T04:21:23;99953.69;;;0.53;100.00
67013;BME280;53926;47.406;19.188;2022-11-20T04:23:50;99949.13;;;0.65;100.00
67013;BME280;53926;47.406;19.188;2022-11-20T04:26:20;99959.69;;;0.62;100.00
67013;BME280;53926;47.406;19.188;2022-11-20T04:28:46;99956.50;;;0.68;100.00
67013;BME280;53926;47.406;19.188;2022-11-20T04:31:17;99956.97;;;0.63;100.00
67013;BME280;53926;47.406;19.188;2022-11-20T04:33:44;99962.09;;;0.63;100.00
67013;BME280;53926;47.406;19.188;2022-11-20T04:36:19;99966.69;;;0.60;100.00
67013;BME280;53926;47.406;19.188;2022-11-20T04:38:50;99977.63;;;0.62;100.00
67013;BME280;53926;47.406;19.188;2022-11-20T04:41:27;99984.63;;;0.60;100.00
67013;BME280;53926;47.406;19.188;2022-11-20T04:43:56;99986.53;;;0.58;100.00
67013;BME280;53926;47.406;19.188;2022-11-20T04:46:27;99987.03;;;0.61;100.00
67013;BME280;53926;47.406;19.188;2022-11-20T04:48:54;99969.38;;;0.50;100.00
67013;BME280;53926;47.406;19.188;2022-11-20T04:51:20;99962.31;;;0.52;100.00
67013;BME280;53926;47.406;19.188;2022-11-20T04:53:47;99951.44;;;0.50;100.00
67013;BME280;53926;47.406;19.188;2022-11-20T04:56:14;99950.41;;;0.43;100.00
67013;BME280;53926;47.406;19.188;2022-11-20T04:58:41;99958.03;;;0.52;100.00
67013;BME280;53926;47.406;19.188;2022-11-20T05:01:13;99955.16;;;0.56;100.00
67013;BME280;53926;47.406;19.188;2022-11-20T05:03:41;99952.44;;;0.57;100.00
67013;BME280;53926;47.406;19.188;2022-11-20T05:06:10;99957.31;;;0.42;100.00
67013;BME280;53926;47.406;19.188;2022-11-20T05:08:37;99952.44;;;0.57;100.00
67013;BME280;53926;47.406;19.188;2022-11-20T05:11:08;99955.22;;;0.46;100.00
67013;BME280;53926;47.406;19.188;2022-11-20T05:13:35;99971.91;;;0.50;100.00
67013;BME280;53926;47.406;19.188;2022-11-20T05:16:16;99952.03;;;0.44;100.00
67013;BME280;53926;47.406;19.188;2022-11-20T05:18:44;99944.75;;;0.31;100.00
67013;BME280;53926;47.406;19.188;2022-11-20T05:21:11;99936.16;;;0.40;100.00
67013;BME280;53926;47.406;19.188;2022-11-20T05:23:38;99938.66;;;0.32;100.00
67013;BME280;53926;47.406;19.188;2022-11-20T05:26:07;99932.00;;;0.39;100.00
67013;BME280;53926;47.406;19.188;2022-11-20T05:28:34;99911.66;;;0.38;100.00
67013;BME280;53926;47.406;19.188;2022-11-20T05:31:09;99903.91;;;0.29;100.00
67013;BME280;53926;47.406;19.188;2022-11-20T05:33:36;99906.62;;;0.28;100.00
67013;BME280;53926;47.406;19.188;2022-11-20T05:36:03;99908.66;;;0.24;100.00
67013;BME280;53926;47.406;19.188;2022-11-20T05:38:30;99909.50;;;0.25;100.00
67013;BME280;53926;47.406;19.188;2022-11-20T05:41:26;99922.06;;;0.18;100.00
67013;BME280;53926;47.406;19.188;2022-11-20T05:43:52;99921.31;;;0.26;100.00
67013;BME280;53926;47.406;19.188;2022-11-20T05:46:20;99929.69;;;0.28;100.00
67013;BME280;53926;47.406;19.188;2022-11-20T05:48:55;99930.13;;;0.23;100.00
67013;BME280;53926;47.406;19.188;2022-11-20T05:51:23;99929.09;;;0.16;100.00
67013;BME280;53926;47.406;19.188;2022-11-20T05:53:50;99933.47;;;0.24;100.00
67013;BME280;53926;47.406;19.188;2022-11-20T05:56:18;99927.13;;;0.28;100.00
67013;BME280;53926;47.406;19.188;2022-11-20T05:58:46;99920.06;;;0.30;100.00
67013;BME280;53926;47.406;19.188;2022-11-20T06:01:16;99931.63;;;0.34;100.00
67013;BME280;53926;47.406;19.188;2022-11-20T06:03:44;99939.63;;;0.31;100.00
67013;BME280;53926;47.406;19.188;2022-11-20T06:06:14;99943.13;;;0.30;100.00
67013;BME280;53926;47.406;19.188;2022-11-20T06:08:41;99937.09;;;0.39;100.00
67013;BME280;53926;47.406;19.188;2022-11-20T06:11:11;99933.59;;;0.40;100.00
67013;BME280;53926;47.406;19.188;2022-11-20T06:13:39;99925.47;;;0.45;100.00
67013;BME280;53926;47.406;19.188;2022-11-20T06:16:08;99939.87;;;0.46;100.00
67013;BME280;53926;47.406;19.188;2022-11-20T06:18:35;99945.81;;;0.46;100.00
67013;BME280;53926;47.406;19.188;2022-11-20T06:21:05;99937.53;;;0.52;100.00
67013;BME280;53926;47.406;19.188;2022-11-20T06:23:33;99924.87;;;0.51;100.00
67013;BME280;53926;47.406;19.188;2022-11-20T06:26:05;99930.94;;;0.50;100.00
67013;BME280;53926;47.406;19.188;2022-11-20T06:28:32;99936.84;;;0.50;100.00
67013;BME280;53926;47.406;19.188;2022-11-20T06:30:59;99943.59;;;0.51;100.00
67013;BME280;53926;47.406;19.188;2022-11-20T06:33:26;99944.59;;;0.59;100.00
67013;BME280;53926;47.406;19.188;2022-11-20T06:35:56;99965.78;;;0.69;100.00
67013;BME280;53926;47.406;19.188;2022-11-20T06:38:28;99977.19;;;0.75;100.00
67013;BME280;53926;47.406;19.188;2022-11-20T06:40:55;99985.59;;;0.59;100.00
67013;BME280;53926;47.406;19.188;2022-11-20T06:43:22;99997.06;;;0.73;100.00
67013;BME280;53926;47.406;19.188;2022-11-20T06:45:53;99996.47;;;0.79;100.00
67013;BME280;53926;47.406;19.188;2022-11-20T06:48:21;99993.22;;;0.77;100.00
67013;BME280;53926;47.406;19.188;2022-11-20T06:50:48;100000.06;;;0.94;100.00
67013;BME280;53926;47.406;19.188;2022-11-20T06:53:14;100015.34;;;1.04;100.00
67013;BME280;53926;47.406;19.188;2022-11-20T06:55:47;99998.50;;;1.01;100.00
67013;BME280;53926;47.406;19.188;2022-11-20T06:58:15;99987.84;;;1.14;100.00
67013;BME280;53926;47.406;19.188;2022-11-20T07:00:43;99981.72;;;1.15;100.00
67013;BME280;53926;47.406;19.188;2022-11-20T07:03:11;99989.66;;;1.30;100.00
67013;BME280;53926;47.406;19.188;2022-11-20T07:05:38;99986.41;;;1.20;100.00
67013;BME280;53926;47.406;19.188;2022-11-20T07:08:05;99973.25;;;1.23;100.00
67013;BME280;53926;47.406;19.188;2022-11-20T07:10:32;99962.91;;;1.33;100.00
67013;BME280;53926;47.406;19.188;2022-11-20T07:12:59;99968.19;;;1.39;100.00
67013;BME280;53926;47.406;19.188;2022-11-20T07:15:26;99970.59;;;1.33;100.00
67013;BME280;53926;47.406;19.188;2022-11-20T07:17:53;99973.81;;;1.43;100.00
67013;BME280;53926;47.406;19.188;2022-11-20T07:20:19;99976.91;;;1.55;100.00
67013;BME280;53926;47.406;19.188;2022-11-20T07:22:46;99974.72;;;1.76;100.00
67013;BME280;53926;47.406;19.188;2022-11-20T07:25:13;99977.91;;;1.62;100.00
67013;BME280;53926;47.406;19.188;2022-11-20T07:27:39;99987.19;;;1.63;100.00
67013;BME280;53926;47.406;19.188;2022-11-20T07:30:06;99992.81;;;1.67;100.00
67013;BME280;53926;47.406;19.188;2022-11-20T07:32:33;99996.41;;;1.90;100.00
67013;BME280;53926;47.406;19.188;2022-11-20T07:34:59;100003.44;;;1.80;100.00
67013;BME280;53926;47.406;19.188;2022-11-20T07:37:26;100003.16;;;2.00;100.00
67013;BME280;53926;47.406;19.188;2022-11-20T07:39:52;99997.38;;;2.06;100.00
67013;BME280;53926;47.406;19.188;2022-11-20T07:42:19;100007.66;;;2.14;100.00
67013;BME280;53926;47.406;19.188;2022-11-20T07:44:46;100007.69;;;2.22;100.00
67013;BME280;53926;47.406;19.188;2022-11-20T07:47:15;100007.34;;;2.25;100.00
67013;BME280;53926;47.406;19.188;2022-11-20T07:49:41;100007.34;;;2.17;100.00
67013;BME280;53926;47.406;19.188;2022-11-20T07:52:08;100010.56;;;2.27;100.00
67013;BME280;53926;47.406;19.188;2022-11-20T07:54:34;100018.91;;;2.21;100.00
67013;BME280;53926;47.406;19.188;2022-11-20T07:57:01;100019.72;;;2.30;100.00
67013;BME280;53926;47.406;19.188;2022-11-20T07:59:28;100018.56;;;2.32;100.00
67013;BME280;53926;47.406;19.188;2022-11-20T08:01:55;99999.50;;;2.27;100.00
67013;BME280;53926;47.406;19.188;2022-11-20T08:04:21;99987.94;;;2.14;100.00
67013;BME280;53926;47.406;19.188;2022-11-20T08:06:51;99989.38;;;2.25;100.00
67013;BME280;53926;47.406;19.188;2022-11-20T08:09:18;99989.38;;;2.25;100.00
67013;BME280;53926;47.406;19.188;2022-11-20T08:11:45;99995.31;;;2.18;100.00
67013;BME280;53926;47.406;19.188;2022-11-20T08:14:30;100005.88;;;2.56;100.00
67013;BME280;53926;47.406;19.188;2022-11-20T08:16:57;100001.72;;;2.63;100.00
67013;BME280;53926;47.406;19.188;2022-11-20T08:19:23;100005.88;;;2.56;100.00
67013;BME280;53926;47.406;19.188;2022-11-20T08:21:50;99999.94;;;2.72;100.00
67013;BME280;53926;47.406;19.188;2022-11-20T08:24:17;100005.06;;;2.72;100.00
67013;BME280;53926;47.406;19.188;2022-11-20T08:26:43;100002.53;;;2.63;100.00
67013;BME280;53926;47.406;19.188;2022-11-20T08:29:10;100002.97;;;2.75;100.00
67013;BME280;53926;47.406;19.188;2022-11-20T08:31:36;99984.25;;;3.06;100.00
67013;BME280;53926;47.406;19.188;2022-11-20T08:34:03;99980.31;;;2.87;100.00
67013;BME280;53926;47.406;19.188;2022-11-20T08:36:35;99997.78;;;3.00;100.00
67013;BME280;53926;47.406;19.188;2022-11-20T08:39:02;99998.91;;;3.06;100.00
67013;BME280;53926;47.406;19.188;2022-11-20T08:41:29;100004.09;;;2.81;100.00
67013;BME280;53926;47.406;19.188;2022-11-20T08:44:01;100004.88;;;2.98;100.00
67013;BME280;53926;47.406;19.188;2022-11-20T08:46:33;100011.81;;;3.37;100.00
67013;BME280;53926;47.406;19.188;2022-11-20T08:49:00;100018.16;;;3.18;100.00
67013;BME280;53926;47.406;19.188;2022-11-20T08:51:27;100009.09;;;3.30;100.00
67013;BME280;53926;47.406;19.188;2022-11-20T08:53:53;100008.97;;;3.24;100.00
67013;BME280;53926;47.406;19.188;2022-11-20T08:56:20;100005.47;;;3.56;100.00
67013;BME280;53926;47.406;19.188;2022-11-20T08:58:46;100006.37;;;4.18;100.00
67013;BME280;53926;47.406;19.188;2022-11-20T09:01:33;100008.84;;;4.49;100.00
67013;BME280;53926;47.406;19.188;2022-11-20T09:03:59;100009.25;;;4.91;100.00
67013;BME280;53926;47.406;19.188;2022-11-20T09:06:26;100011.22;;;5.18;100.00
67013;BME280;53926;47.406;19.188;2022-11-20T09:08:53;100018.31;;;5.46;100.00
67013;BME280;53926;47.406;19.188;2022-11-20T09:11:21;100013.91;;;5.77;97.35
67013;BME280;53926;47.406;19.188;2022-11-20T09:13:48;100011.81;;;5.50;97.69
67013;BME280;53926;47.406;19.188;2022-11-20T09:16:14;100011.47;;;5.38;98.50
67013;BME280;53926;47.406;19.188;2022-11-20T09:18:41;100025.56;;;5.06;99.76
67013;BME280;53926;47.406;19.188;2022-11-20T09:21:10;100031.88;;;5.18;100.00
67013;BME280;53926;47.406;19.188;2022-11-20T09:23:38;100038.09;;;4.79;100.00
67013;BME280;53926;47.406;19.188;2022-11-20T09:26:10;100037.37;;;4.47;100.00
67013;BME280;53926;47.406;19.188;2022-11-20T09:28:37;100028.91;;;4.39;100.00
67013;BME280;53926;47.406;19.188;2022-11-20T09:31:08;100015.38;;;4.60;100.00
67013;BME280;53926;47.406;19.188;2022-11-20T09:33:35;100015.56;;;4.35;100.00
67013;BME280;53926;47.406;19.188;2022-11-20T09:36:02;100019.72;;;4.21;100.00
67013;BME280;53926;47.406;19.188;2022-11-20T09:38:29;100014.22;;;4.01;100.00
67013;BME280;53926;47.406;19.188;2022-11-20T09:41:03;100022.19;;;3.83;100.00
67013;BME280;53926;47.406;19.188;2022-11-20T09:46:29;100018.94;;;4.36;100.00
67013;BME280;53926;47.406;19.188;2022-11-20T09:52:09;99996.25;;;4.31;100.00
67013;BME280;53926;47.406;19.188;2022-11-20T09:54:40;99992.78;;;4.62;100.00
67013;BME280;53926;47.406;19.188;2022-11-20T09:57:37;99986.97;;;4.07;100.00
67013;BME280;53926;47.406;19.188;2022-11-20T10:00:06;99989.50;;;4.68;100.00
67013;BME280;53926;47.406;19.188;2022-11-20T10:02:57;99993.87;;;4.82;100.00
67013;BME280;53926;47.406;19.188;2022-11-20T10:05:28;99993.94;;;4.74;100.00
67013;BME280;53926;47.406;19.188;2022-11-20T10:10:56;99988.88;;;5.11;100.00
67013;BME280;53926;47.406;19.188;2022-11-20T10:29:34;99954.25;;;5.93;98.98
67013;BME280;53926;47.406;19.188;2022-11-20T10:32:04;99950.66;;;5.94;100.00
67013;BME280;53926;47.406;19.188;2022-11-20T10:37:12;99942.53;;;6.19;98.74
67013;BME280;53926;47.406;19.188;2022-11-20T10:42:31;99956.00;;;6.14;100.00
67013;BME280;53926;47.406;19.188;2022-11-20T10:47:46;99959.00;;;6.68;96.62
67013;BME280;53926;47.406;19.188;2022-11-20T10:50:18;99963.13;;;6.62;97.43
67013;BME280;53926;47.406;19.188;2022-11-20T10:53:14;99958.62;;;6.77;97.57
67013;BME280;53926;47.406;19.188;2022-11-20T10:55:55;99961.34;;;6.62;97.57
67013;BME280;53926;47.406;19.188;2022-11-20T10:58:45;99965.06;;;6.88;96.74
67013;BME280;53926;47.406;19.188;2022-11-20T11:01:20;99976.44;;;6.87;93.83
67013;BME280;53926;47.406;19.188;2022-11-20T11:03:55;99978.37;;;7.27;94.76
67013;BME280;53926;47.406;19.188;2022-11-20T11:06:30;99974.56;;;7.16;93.36
67013;BME280;53926;47.406;19.188;2022-11-20T11:09:13;99977.13;;;6.39;99.85
67013;BME280;53926;47.406;19.188;2022-11-20T11:11:42;99976.78;;;6.49;98.17
67013;BME280;53926;47.406;19.188;2022-11-20T11:14:12;99986.25;;;7.05;97.38
67013;BME280;53926;47.406;19.188;2022-11-20T11:16:53;99986.59;;;7.30;93.49
67013;BME280;53926;47.406;19.188;2022-11-20T11:19:20;99982.12;;;6.48;99.37
67013;BME280;53926;47.406;19.188;2022-11-20T11:21:49;99982.28;;;6.68;99.36
67013;BME280;53926;47.406;19.188;2022-11-20T11:24:24;99979.41;;;6.84;98.75
67013;BME280;53926;47.406;19.188;2022-11-20T11:27:13;99970.87;;;6.05;100.00
67013;BME280;53926;47.406;19.188;2022-11-20T11:29:44;99961.59;;;6.74;98.91
67013;BME280;53926;47.406;19.188;2022-11-20T11:32:13;99971.69;;;6.62;98.76
67013;BME280;53926;47.406;19.188;2022-11-20T11:34:41;99972.75;;;7.10;98.33
67013;BME280;53926;47.406;19.188;2022-11-20T11:37:16;99972.13;;;7.63;96.78
67013;BME280;53926;47.406;19.188;2022-11-20T11:39:44;99971.59;;;7.19;94.87
67013;BME280;53926;47.406;19.188;2022-11-20T11:42:20;99973.06;;;6.30;100.00
67013;BME280;53926;47.406;19.188;2022-11-20T11:44:47;99961.03;;;6.79;99.36
67013;BME280;53926;47.406;19.188;2022-11-20T11:55:14;99929.22;;;7.40;97.73
67013;BME280;53926;47.406;19.188;2022-11-20T12:00:19;99948.06;;;7.89;94.96
67013;BME280;53926;47.406;19.188;2022-11-20T12:05:42;99959.78;;;7.65;98.16
67013;BME280;53926;47.406;19.188;2022-11-20T12:10:58;99932.22;;;7.37;96.28
67013;BME280;53926;47.406;19.188;2022-11-20T12:16:14;99924.00;;;7.27;96.80
67013;BME280;53926;47.406;19.188;2022-11-20T12:18:41;99919.31;;;7.57;98.68
67013;BME280;53926;47.406;19.188;2022-11-20T12:24:01;99920.88;;;7.38;93.82
67013;BME280;53926;47.406;19.188;2022-11-20T12:26:51;99920.62;;;7.33;94.73
67013;BME280;53926;47.406;19.188;2022-11-20T12:39:40;99945.84;;;7.04;95.65
67013;BME280;53926;47.406;19.188;2022-11-20T12:45:14;99943.19;;;7.46;95.21
67013;BME280;53926;47.406;19.188;2022-11-20T13:01:38;99949.88;;;7.20;94.94
67013;BME280;53926;47.406;19.188;2022-11-20T13:04:16;99945.69;;;6.77;97.07
67013;BME280;53926;47.406;19.188;2022-11-20T13:06:45;99946.94;;;6.88;98.33
67013;BME280;53926;47.406;19.188;2022-11-20T13:09:15;99953.31;;;6.86;94.55
67013;BME280;53926;47.406;19.188;2022-11-20T13:14:52;99952.94;;;6.89;95.61
67013;BME280;53926;47.406;19.188;2022-11-20T13:19:57;99936.94;;;6.72;95.31
67013;BME280;53926;47.406;19.188;2022-11-20T13:22:44;99945.09;;;6.75;97.12
67013;BME280;53926;47.406;19.188;2022-11-20T13:28:40;99940.31;;;6.72;96.02
67013;BME280;53926;47.406;19.188;2022-11-20T13:30:52;99936.91;;;6.37;98.54
67013;BME280;53926;47.406;19.188;2022-11-20T13:36:06;99923.31;;;6.56;99.66
67013;BME280;53926;47.406;19.188;2022-11-20T13:38:47;99919.31;;;6.25;99.46
67013;BME280;53926;47.406;19.188;2022-11-20T13:41:34;99912.56;;;6.59;98.76
67013;BME280;53926;47.406;19.188;2022-11-20T13:44:14;99905.22;;;6.28;98.99
67013;BME280;53926;47.406;19.188;2022-11-20T13:46:43;99907.38;;;6.24;99.23
67013;BME280;53926;47.406;19.188;2022-11-20T13:49:18;99893.16;;;6.42;99.42
67013;BME280;53926;47.406;19.188;2022-11-20T13:51:50;99900.53;;;6.10;100.00
67013;BME280;53926;47.406;19.188;2022-11-20T14:00:17;99888.34;;;5.82;100.00
67013;BME280;53926;47.406;19.188;2022-11-20T14:03:18;99904.34;;;5.71;100.00
67013;BME280;53926;47.406;19.188;2022-11-20T14:06:12;99900.91;;;5.64;100.00
67013;BME280;53926;47.406;19.188;2022-11-20T14:08:49;99899.66;;;5.38;100.00
67013;BME280;53926;47.406;19.188;2022-11-20T14:11:21;99900.22;;;5.18;100.00
67013;BME280;53926;47.406;19.188;2022-11-20T14:14:18;99893.03;;;5.14;100.00
67013;BME280;53926;47.406;19.188;2022-11-20T14:16:46;99904.97;;;5.00;100.00
67013;BME280;53926;47.406;19.188;2022-11-20T14:22:06;99913.19;;;4.89;100.00
67013;BME280;53926;47.406;19.188;2022-11-20T14:24:33;99906.78;;;4.84;100.00
67013;BME280;53926;47.406;19.188;2022-11-20T14:27:00;99906.53;;;4.79;100.00
67013;BME280;53926;47.406;19.188;2022-11-20T14:29:29;99905.19;;;4.69;100.00
67013;BME280;53926;47.406;19.188;2022-11-20T14:31:56;99910.44;;;4.75;100.00
67013;BME280;53926;47.406;19.188;2022-11-20T14:34:25;99904.91;;;4.78;100.00
67013;BME280;53926;47.406;19.188;2022-11-20T14:36:57;99915.59;;;4.75;100.00
67013;BME280;53926;47.406;19.188;2022-11-20T14:39:49;99912.47;;;4.65;100.00
67013;BME280;53926;47.406;19.188;2022-11-20T14:42:20;99917.91;;;4.55;100.00
67013;BME280;53926;47.406;19.188;2022-11-20T14:44:48;99917.97;;;4.62;100.00
67013;BME280;53926;47.406;19.188;2022-11-20T14:47:21;99917.47;;;4.52;100.00
67013;BME280;53926;47.406;19.188;2022-11-20T14:49:50;99928.66;;;4.44;100.00